Time;durP1;ratioP1;P1;durP2;ratioP2;P2;SDS_P1;SDS_P2;PMS_P1;PMS_P2;Temp;Humidity;BMP_temperature;BMP_pressure;BME280_temperature;BME280_humidity;BME280_pressure;Samples;Min_cycle;Max_cycle;Signal;HPM_P1;HPM_P2
2021/07/11 00:01:10;;;;;;;0.50;0.30;;;16.70;99.90;;;;;;5106132;28;20843;-78
2021/07/11 00:03:37;;;;;;;0.50;0.30;;;16.60;99.90;;;;;;5106495;28;20471;-80
2021/07/11 00:06:03;;;;;;;0.50;0.40;;;16.60;99.90;;;;;;5106524;28;20439;-79
2021/07/11 00:08:31;;;;;;;1.37;1.27;;;16.60;99.90;;;;;;5105554;28;20449;-79
2021/07/11 00:10:58;;;;;;;0.50;0.30;;;16.60;99.90;;;;;;5106684;28;20447;-80
2021/07/11 00:13:25;;;;;;;0.50;0.50;;;16.60;99.90;;;;;;5106131;28;20459;-80
2021/07/11 00:15:51;;;;;;;0.50;0.30;;;16.50;99.90;;;;;;5097173;28;20490;-79
2021/07/11 00:18:18;;;;;;;0.50;0.50;;;16.50;99.90;;;;;;5105959;28;20464;-80
2021/07/11 00:20:45;;;;;;;3.50;1.13;;;16.50;99.90;;;;;;5105951;28;20450;-80
2021/07/11 00:23:12;;;;;;;1.63;1.47;;;16.50;99.90;;;;;;5107046;28;20462;-81
2021/07/11 00:25:40;;;;;;;0.50;0.40;;;16.50;99.90;;;;;;5103980;28;20442;-80
2021/07/11 00:28:07;;;;;;;0.50;0.43;;;16.50;99.90;;;;;;5104189;28;20441;-81
2021/07/11 00:30:33;;;;;;;0.70;0.70;;;16.40;99.90;;;;;;5107684;28;20431;-82
2021/07/11 00:33:00;;;;;;;0.50;0.30;;;16.30;99.90;;;;;;5107011;28;20454;-80
2021/07/11 00:35:27;;;;;;;0.50;0.30;;;16.30;99.90;;;;;;5106477;28;20438;-80
2021/07/11 00:37:54;;;;;;;0.50;0.40;;;16.30;99.90;;;;;;5103822;28;20493;-80
2021/07/11 00:40:21;;;;;;;1.93;1.83;;;16.30;99.90;;;;;;5107556;28;20439;-81
2021/07/11 00:42:49;;;;;;;0.50;0.50;;;16.30;99.90;;;;;;5107417;28;20467;-80
2021/07/11 00:45:16;;;;;;;0.50;0.30;;;16.30;99.90;;;;;;5098210;28;20435;-81
2021/07/11 00:47:44;;;;;;;0.50;0.30;;;16.30;99.90;;;;;;5106248;28;20435;-80
2021/07/11 00:50:14;;;;;;;1.33;1.33;;;16.20;99.90;;;;;;5106974;28;20457;-80
2021/07/11 00:52:41;;;;;;;1.13;1.13;;;16.20;99.90;;;;;;5107801;28;20481;-81
2021/07/11 00:55:10;;;;;;;3.87;3.60;;;16.20;99.90;;;;;;5107195;28;20432;-80
2021/07/11 00:57:37;;;;;;;0.97;0.87;;;16.20;99.90;;;;;;5107033;28;20483;-80
2021/07/11 01:00:07;;;;;;;0.50;0.40;;;16.20;99.90;;;;;;5106349;28;20446;-80
2021/07/11 01:02:39;;;;;;;2.50;2.20;;;16.20;99.90;;;;;;5107854;28;20463;-80
2021/07/11 01:05:09;;;;;;;1.47;1.37;;;16.20;99.90;;;;;;5106604;28;20461;-80
2021/07/11 01:07:38;;;;;;;1.10;0.77;;;16.20;99.90;;;;;;5106623;28;20446;-79
2021/07/11 01:10:09;;;;;;;0.80;0.80;;;16.20;99.90;;;;;;5106660;28;20439;-80
2021/07/11 01:12:43;;;;;;;0.50;0.40;;;16.20;99.90;;;;;;5106267;28;20474;-79
2021/07/11 01:15:12;;;;;;;5.27;2.63;;;16.20;99.90;;;;;;5097726;28;20421;-80
2021/07/11 01:17:39;;;;;;;1.00;1.00;;;16.20;99.90;;;;;;5106146;28;20477;-80
2021/07/11 01:20:24;;;;;;;0.50;0.30;;;16.20;99.90;;;;;;5105967;28;20443;-80
2021/07/11 01:22:53;;;;;;;0.83;0.70;;;16.20;99.90;;;;;;5105716;28;20976;-80
2021/07/11 01:25:33;;;;;;;0.50;0.40;;;16.10;99.90;;;;;;5106264;28;20451;-80
2021/07/11 01:28:01;;;;;;;0.50;0.30;;;16.10;99.90;;;;;;5106472;28;20480;-81
2021/07/11 01:30:29;;;;;;;4.33;3.03;;;16.10;99.90;;;;;;5107026;28;20443;-80
2021/07/11 01:32:57;;;;;;;0.50;0.40;;;16.20;99.90;;;;;;5106616;28;20463;-80
2021/07/11 01:35:24;;;;;;;0.60;0.60;;;16.20;99.90;;;;;;5106422;28;20438;-79
2021/07/11 01:37:52;;;;;;;0.60;0.60;;;16.20;99.90;;;;;;5105194;28;20531;-80
2021/07/11 01:40:20;;;;;;;0.50;0.30;;;16.20;99.90;;;;;;5105488;28;20432;-80
2021/07/11 01:42:50;;;;;;;0.50;0.30;;;16.20;99.90;;;;;;5105975;28;20494;-80
2021/07/11 01:45:18;;;;;;;0.60;0.60;;;16.20;99.90;;;;;;5097077;28;20524;-80
2021/07/11 01:47:46;;;;;;;0.60;0.60;;;16.30;99.90;;;;;;5105885;28;20436;-80
2021/07/11 01:50:13;;;;;;;5.03;4.73;;;16.30;99.90;;;;;;5105734;28;20454;-80
2021/07/11 01:52:41;;;;;;;0.50;0.30;;;16.30;99.90;;;;;;5106190;28;20778;-80
2021/07/11 01:55:10;;;;;;;3.27;3.07;;;16.30;99.90;;;;;;5105798;28;20440;-80
2021/07/11 01:57:37;;;;;;;0.50;0.40;;;16.30;99.90;;;;;;5105354;28;21020;-79
2021/07/11 02:00:07;;;;;;;6.73;4.10;;;16.30;99.90;;;;;;5104847;28;20448;-80
2021/07/11 02:02:34;;;;;;;2.70;2.50;;;16.30;99.90;;;;;;5106514;28;20460;-80
2021/07/11 02:05:04;;;;;;;0.50;0.50;;;16.30;99.90;;;;;;5106388;28;20449;-77
2021/07/11 02:07:31;;;;;;;2.33;1.80;;;16.20;99.90;;;;;;5105229;28;20435;-81
2021/07/11 02:09:58;;;;;;;0.50;0.40;;;16.30;99.90;;;;;;5105003;28;20443;-80
2021/07/11 02:12:28;;;;;;;1.30;0.83;;;16.30;99.90;;;;;;5105709;28;20494;-80
2021/07/11 02:14:56;;;;;;;1.77;1.67;;;16.30;99.90;;;;;;5096352;28;20437;-77
2021/07/11 02:17:28;;;;;;;1.50;1.43;;;16.30;99.90;;;;;;5104288;28;20470;-80
2021/07/11 02:19:59;;;;;;;2.63;1.10;;;16.30;99.90;;;;;;5104915;28;20443;-80
2021/07/11 02:22:27;;;;;;;0.70;0.50;;;16.30;99.90;;;;;;5104434;28;20458;-79
2021/07/11 02:24:54;;;;;;;0.60;0.60;;;16.40;99.90;;;;;;5104789;28;20504;-81
2021/07/11 02:27:22;;;;;;;0.50;0.40;;;16.40;99.90;;;;;;5104057;28;20917;-80
2021/07/11 02:29:53;;;;;;;1.53;1.43;;;16.40;99.90;;;;;;5104602;28;20469;-80
2021/07/11 02:32:20;;;;;;;3.10;2.90;;;16.40;99.90;;;;;;5105222;28;20463;-80
2021/07/11 02:34:48;;;;;;;0.50;0.43;;;16.30;99.90;;;;;;5104177;28;20436;-80
2021/07/11 02:37:19;;;;;;;30.10;7.10;;;16.40;99.90;;;;;;5103643;28;20470;-80
2021/07/11 02:39:47;;;;;;;0.50;0.30;;;16.40;99.90;;;;;;5104651;28;20439;-80
2021/07/11 02:42:15;;;;;;;0.50;0.40;;;16.40;99.90;;;;;;5103721;28;20463;-79
2021/07/11 02:44:46;;;;;;;0.50;0.30;;;16.40;99.90;;;;;;5114892;22;20854;-80
2021/07/11 02:47:17;;;;;;;0.93;0.93;;;16.40;99.90;;;;;;5080570;28;20616;-81
2021/07/11 02:49:50;;;;;;;3.80;3.43;;;16.40;99.90;;;;;;5076027;28;20428;-80
2021/07/11 02:52:19;;;;;;;0.50;0.50;;;16.40;99.90;;;;;;5074588;28;20436;-80
2021/07/11 02:54:49;;;;;;;6.90;1.90;;;16.40;99.90;;;;;;5075325;28;20976;-81
2021/07/11 02:57:20;;;;;;;2.03;1.93;;;16.40;99.90;;;;;;5074468;28;20468;-81
2021/07/11 02:59:48;;;;;;;0.60;0.60;;;16.40;99.90;;;;;;5074781;28;20440;-82
2021/07/11 03:02:16;;;;;;;12.93;6.97;;;16.40;99.90;;;;;;5073772;28;20494;-81
2021/07/11 03:04:44;;;;;;;2.87;1.13;;;16.40;99.90;;;;;;5074657;28;20460;-81
2021/07/11 03:07:12;;;;;;;0.60;0.57;;;16.30;99.90;;;;;;5074383;28;20475;-82
2021/07/11 03:09:40;;;;;;;1.63;1.20;;;16.30;99.90;;;;;;5074383;28;20466;-81
2021/07/11 03:12:08;;;;;;;3.27;3.07;;;16.30;99.90;;;;;;5073918;28;20467;-79
2021/07/11 03:14:36;;;;;;;1.90;1.80;;;16.30;99.90;;;;;;5083901;28;20454;-79
2021/07/11 03:17:04;;;;;;;2.40;1.07;;;16.30;99.90;;;;;;5084139;28;20480;-79
2021/07/11 03:19:35;;;;;;;0.70;0.70;;;16.30;99.90;;;;;;5094250;28;20451;-81
2021/07/11 03:22:04;;;;;;;1.80;1.70;;;16.30;99.90;;;;;;5094142;28;20437;-79
2021/07/11 03:24:33;;;;;;;0.50;0.40;;;16.30;99.90;;;;;;5093579;28;20452;-79
2021/07/11 03:27:00;;;;;;;0.60;0.60;;;16.20;99.90;;;;;;5092438;28;20848;-79
2021/07/11 03:29:32;;;;;;;5.07;4.27;;;16.30;99.90;;;;;;5095918;28;20443;-81
2021/07/11 03:32:00;;;;;;;1.30;1.20;;;16.30;99.90;;;;;;5096832;28;20515;-81
2021/07/11 03:34:28;;;;;;;7.13;6.20;;;16.20;99.90;;;;;;5095434;28;20455;-80
2021/07/11 03:36:58;;;;;;;8.33;4.63;;;16.20;99.90;;;;;;5094458;28;20485;-81
2021/07/11 03:39:27;;;;;;;0.50;0.40;;;16.20;99.90;;;;;;5094209;28;20451;-82
2021/07/11 03:41:57;;;;;;;3.33;2.20;;;16.20;99.90;;;;;;5093882;28;20805;-79
2021/07/11 03:44:30;;;;;;;1.50;1.40;;;16.20;99.90;;;;;;5093306;28;20478;-80
2021/07/11 03:46:57;;;;;;;8.10;7.30;;;16.10;99.90;;;;;;5084572;28;20421;-79
2021/07/11 03:49:25;;;;;;;1.27;1.17;;;16.10;99.90;;;;;;5093759;28;20447;-79
2021/07/11 03:51:53;;;;;;;0.50;0.50;;;16.10;99.90;;;;;;5093039;28;20552;-81
2021/07/11 03:54:20;;;;;;;3.83;3.50;;;16.10;99.90;;;;;;5093178;28;20455;-80
2021/07/11 03:56:49;;;;;;;2.23;2.13;;;16.10;99.90;;;;;;5092610;28;20443;-79
2021/07/11 03:59:18;;;;;;;0.73;0.73;;;16.10;99.90;;;;;;5094138;28;20443;-77
2021/07/11 04:01:46;;;;;;;4.23;1.83;;;16.10;99.90;;;;;;5094321;28;20436;-79
2021/07/11 04:04:18;;;;;;;0.50;0.37;;;16.10;99.90;;;;;;5094130;28;20469;-80
2021/07/11 04:06:48;;;;;;;0.40;0.30;;;16.10;99.90;;;;;;5093443;28;20415;-80
2021/07/11 04:09:18;;;;;;;2.00;1.90;;;16.20;99.90;;;;;;5093986;28;20451;-79
2021/07/11 04:11:46;;;;;;;0.80;0.80;;;16.10;99.90;;;;;;5094668;28;20470;-80
2021/07/11 04:14:16;;;;;;;0.40;0.30;;;16.10;99.90;;;;;;5093961;28;20465;-79
2021/07/11 04:16:45;;;;;;;0.60;0.60;;;16.10;99.90;;;;;;5084395;28;20428;-80
2021/07/11 04:19:13;;;;;;;0.50;0.30;;;16.10;99.90;;;;;;5094368;28;20444;-80
2021/07/11 04:21:42;;;;;;;0.50;0.30;;;16.20;99.90;;;;;;5094992;28;20440;-79
2021/07/11 04:24:09;;;;;;;0.80;0.80;;;16.20;99.90;;;;;;5094132;28;20459;-77
2021/07/11 04:26:38;;;;;;;6.03;1.60;;;16.20;99.90;;;;;;5094071;28;20778;-80
2021/07/11 04:29:05;;;;;;;0.50;0.40;;;16.20;99.90;;;;;;5093640;28;20447;-79
2021/07/11 04:31:33;;;;;;;3.40;3.20;;;16.20;99.90;;;;;;5093891;28;20444;-78
2021/07/11 04:34:14;;;;;;;2.07;2.00;;;16.20;99.90;;;;;;5093939;28;20999;-79
2021/07/11 04:36:41;;;;;;;1.77;0.77;;;16.20;99.90;;;;;;5094277;28;20454;-80
2021/07/11 04:39:09;;;;;;;0.50;0.30;;;16.20;99.90;;;;;;5096197;28;20999;-80
2021/07/11 04:41:38;;;;;;;3.63;2.20;;;16.20;99.90;;;;;;5098560;28;20443;-79
2021/07/11 04:44:05;;;;;;;0.50;0.30;;;16.20;99.90;;;;;;5097183;28;21058;-80
2021/07/11 04:46:33;;;;;;;1.00;1.00;;;16.20;99.90;;;;;;5089332;28;20530;-79
2021/07/11 04:49:00;;;;;;;0.50;0.33;;;16.20;99.90;;;;;;5097850;28;20439;-80
2021/07/11 04:51:27;;;;;;;0.50;0.30;;;16.20;99.90;;;;;;5097931;28;20443;-79
2021/07/11 04:53:53;;;;;;;0.40;0.30;;;16.30;99.90;;;;;;5097622;28;20825;-82
2021/07/11 04:56:20;;;;;;;0.50;0.30;;;16.30;99.90;;;;;;5097575;28;20944;-77
2021/07/11 04:58:47;;;;;;;0.50;0.40;;;16.30;99.90;;;;;;5096966;28;20475;-80
2021/07/11 05:01:14;;;;;;;0.40;0.30;;;16.40;99.90;;;;;;5098195;28;20836;-79
2021/07/11 05:03:42;;;;;;;0.50;0.30;;;16.40;99.90;;;;;;5097770;28;20473;-81
2021/07/11 05:06:09;;;;;;;0.50;0.30;;;16.40;99.90;;;;;;5097787;28;20436;-80
2021/07/11 05:08:35;;;;;;;0.43;0.30;;;16.50;99.90;;;;;;5097987;28;20435;-80
2021/07/11 05:11:02;;;;;;;1.30;1.30;;;16.60;99.90;;;;;;5098629;28;20488;-79
2021/07/11 05:13:29;;;;;;;3.73;2.50;;;16.60;99.90;;;;;;5098443;28;20462;-81
2021/07/11 05:15:55;;;;;;;0.50;0.43;;;16.50;99.90;;;;;;5090126;28;20433;-80
2021/07/11 05:18:22;;;;;;;9.43;7.77;;;16.50;99.90;;;;;;5097067;28;20863;-79
2021/07/11 05:20:50;;;;;;;12.60;6.90;;;16.40;99.90;;;;;;5098342;28;20447;-80
2021/07/11 05:23:17;;;;;;;1.90;1.27;;;16.30;99.90;;;;;;5097485;28;20821;-79
2021/07/11 05:25:43;;;;;;;1.87;1.33;;;16.30;99.90;;;;;;5097912;28;20465;-81
2021/07/11 05:28:11;;;;;;;0.50;0.40;;;16.30;99.90;;;;;;5098073;28;20455;-80
2021/07/11 05:30:38;;;;;;;1.63;1.53;;;16.40;99.90;;;;;;5098109;28;20883;-81
2021/07/11 05:33:04;;;;;;;0.70;0.50;;;16.40;99.90;;;;;;5097848;28;20439;-80
2021/07/11 05:35:31;;;;;;;1.40;1.33;;;16.30;99.90;;;;;;5097994;28;20832;-80
2021/07/11 05:37:59;;;;;;;2.67;0.87;;;16.40;99.90;;;;;;5101619;28;20463;-79
2021/07/11 05:40:26;;;;;;;1.17;1.17;;;16.40;99.90;;;;;;5095301;28;20942;-79
2021/07/11 05:42:53;;;;;;;1.17;1.07;;;16.50;99.90;;;;;;5095913;28;20442;-81
2021/07/11 05:45:19;;;;;;;0.60;0.60;;;16.50;99.90;;;;;;5092745;28;20999;-80
2021/07/11 05:47:47;;;;;;;0.50;0.30;;;16.60;99.90;;;;;;5088968;28;20423;-79
2021/07/11 05:50:15;;;;;;;0.43;0.30;;;16.70;99.90;;;;;;5094707;28;20546;-80
2021/07/11 05:52:42;;;;;;;14.10;2.20;;;16.80;99.90;;;;;;5095225;28;20444;-80
2021/07/11 05:55:12;;;;;;;0.53;0.50;;;16.90;99.90;;;;;;5095553;28;20497;-79
2021/07/11 05:57:39;;;;;;;0.57;0.57;;;16.90;99.90;;;;;;5094523;28;20474;-79
2021/07/11 06:00:07;;;;;;;2.97;2.83;;;16.90;99.90;;;;;;5095125;28;20436;-79
2021/07/11 06:02:34;;;;;;;0.73;0.73;;;16.90;99.90;;;;;;5095357;28;20436;-80
2021/07/11 06:05:00;;;;;;;2.73;2.23;;;16.80;99.90;;;;;;5095444;28;20988;-81
2021/07/11 06:07:27;;;;;;;0.93;0.93;;;16.90;99.90;;;;;;5094238;28;20847;-79
2021/07/11 06:09:57;;;;;;;0.50;0.30;;;16.90;99.90;;;;;;5095332;28;20444;-79
2021/07/11 06:12:25;;;;;;;0.50;0.40;;;16.90;99.90;;;;;;5094619;28;20451;-80
2021/07/11 06:14:54;;;;;;;1.83;1.73;;;16.90;99.90;;;;;;5094944;28;20476;-79
2021/07/11 06:17:21;;;;;;;0.50;0.50;;;17.00;99.90;;;;;;5086212;28;20997;-79
2021/07/11 06:19:48;;;;;;;0.50;0.40;;;17.00;99.90;;;;;;5094753;28;20443;-79
2021/07/11 06:22:14;;;;;;;0.70;0.70;;;17.10;99.90;;;;;;5094256;28;20436;-79
2021/07/11 06:24:41;;;;;;;4.77;3.90;;;17.10;99.90;;;;;;5094624;28;20464;-81
2021/07/11 06:27:08;;;;;;;3.67;3.37;;;17.20;99.90;;;;;;5094304;28;20436;-79
2021/07/11 06:29:36;;;;;;;0.50;0.30;;;17.20;99.90;;;;;;5093914;28;20432;-80
2021/07/11 06:32:03;;;;;;;1.47;1.37;;;17.30;99.90;;;;;;5094818;28;20457;-79
2021/07/11 06:34:30;;;;;;;1.53;1.53;;;17.30;99.90;;;;;;5094323;28;20464;-81
2021/07/11 06:36:56;;;;;;;3.23;3.03;;;17.40;99.90;;;;;;5094235;28;20454;-80
2021/07/11 06:39:23;;;;;;;0.63;0.63;;;17.40;99.90;;;;;;5094710;28;20476;-80
2021/07/11 06:41:50;;;;;;;0.50;0.30;;;17.50;99.90;;;;;;5095334;28;20436;-81
2021/07/11 06:44:16;;;;;;;5.43;4.07;;;17.60;99.90;;;;;;5093664;28;20471;-82
2021/07/11 06:46:44;;;;;;;2.00;1.23;;;17.70;99.90;;;;;;5085637;28;20564;-80
2021/07/11 06:49:11;;;;;;;0.50;0.30;;;17.70;99.90;;;;;;5094850;28;20432;-79
2021/07/11 06:51:38;;;;;;;0.50;0.30;;;17.70;99.90;;;;;;5095041;28;20960;-80
2021/07/11 06:54:04;;;;;;;0.70;0.70;;;17.90;99.90;;;;;;5094990;28;20825;-81
2021/07/11 06:56:31;;;;;;;0.50;0.30;;;18.00;99.90;;;;;;5094984;28;20447;-82
2021/07/11 06:58:58;;;;;;;1.23;1.23;;;18.00;99.90;;;;;;5094492;28;20479;-80
2021/07/11 07:01:24;;;;;;;0.50;0.40;;;18.10;99.90;;;;;;5095021;28;20436;-80
2021/07/11 07:03:52;;;;;;;3.60;3.40;;;18.10;99.90;;;;;;5094759;28;20513;-81
2021/07/11 07:06:19;;;;;;;1.23;1.10;;;18.00;99.90;;;;;;5095063;28;20485;-80
2021/07/11 07:08:46;;;;;;;0.50;0.50;;;18.00;99.90;;;;;;5095353;28;20440;-81
2021/07/11 07:11:13;;;;;;;0.50;0.30;;;18.10;99.90;;;;;;5094391;28;20867;-79
2021/07/11 07:13:39;;;;;;;7.53;3.67;;;18.20;99.90;;;;;;5094856;28;20463;-80
2021/07/11 07:16:06;;;;;;;0.50;0.50;;;18.20;99.90;;;;;;5085708;28;20497;-80
2021/07/11 07:18:33;;;;;;;4.07;3.80;;;18.20;99.90;;;;;;5094078;28;20475;-80
2021/07/11 07:21:01;;;;;;;0.50;0.37;;;18.20;99.90;;;;;;5094796;28;20797;-80
2021/07/11 07:23:27;;;;;;;9.17;6.37;;;18.20;99.90;;;;;;5094323;28;20444;-80
2021/07/11 07:25:54;;;;;;;0.50;0.40;;;18.20;99.90;;;;;;5094777;28;20443;-80
2021/07/11 07:28:21;;;;;;;0.50;0.40;;;18.20;99.90;;;;;;5094872;28;20432;-80
2021/07/11 07:30:49;;;;;;;1.93;1.73;;;18.30;99.90;;;;;;5094632;28;20452;-81
2021/07/11 07:33:15;;;;;;;1.37;1.27;;;18.30;99.90;;;;;;5094690;28;20436;-82
2021/07/11 07:35:42;;;;;;;2.33;2.17;;;18.30;99.90;;;;;;5094510;28;20440;-80
2021/07/11 07:38:10;;;;;;;2.00;1.80;;;18.40;99.90;;;;;;5094435;28;20475;-79
2021/07/11 07:40:37;;;;;;;5.30;2.50;;;18.50;99.90;;;;;;5095002;28;20448;-80
2021/07/11 07:43:04;;;;;;;6.00;4.97;;;18.60;99.90;;;;;;5094896;28;20440;-80
2021/07/11 07:45:31;;;;;;;0.63;0.63;;;18.70;99.90;;;;;;5090176;28;20468;-82
2021/07/11 07:47:57;;;;;;;2.97;2.13;;;18.70;99.90;;;;;;5090257;28;20443;-82
2021/07/11 07:50:24;;;;;;;0.50;0.30;;;18.80;99.90;;;;;;5094995;28;20436;-83
2021/07/11 07:52:51;;;;;;;2.93;2.83;;;19.20;99.90;;;;;;5095063;28;20443;-82
2021/07/11 07:55:20;;;;;;;0.50;0.30;;;19.60;99.90;;;;;;5094897;28;20464;-79
2021/07/11 07:57:46;;;;;;;0.50;0.40;;;19.60;99.90;;;;;;5094507;28;20444;-81
2021/07/11 08:00:15;;;;;;;0.83;0.83;;;19.80;99.90;;;;;;5093710;28;20558;-79
2021/07/11 08:02:42;;;;;;;4.40;3.83;;;19.70;99.90;;;;;;5094471;28;20443;-80
2021/07/11 08:05:10;;;;;;;2.30;2.20;;;19.50;99.90;;;;;;5094296;28;20467;-81
2021/07/11 08:07:36;;;;;;;7.33;6.37;;;19.20;99.90;;;;;;5093881;28;20439;-81
2021/07/11 08:10:04;;;;;;;23.13;13.37;;;19.10;99.90;;;;;;5095194;28;20802;-79
2021/07/11 08:12:33;;;;;;;10.43;7.43;;;18.80;99.90;;;;;;5093725;28;20440;-80
2021/07/11 08:15:00;;;;;;;1.37;1.27;;;18.50;99.90;;;;;;5097304;28;20458;-81
2021/07/11 08:17:27;;;;;;;0.60;0.60;;;18.30;99.90;;;;;;5089835;28;20446;-81
2021/07/11 08:19:55;;;;;;;9.30;4.13;;;18.40;99.90;;;;;;5098506;28;20479;-81
2021/07/11 08:22:22;;;;;;;3.70;3.40;;;18.40;99.90;;;;;;5098923;28;20444;-77
2021/07/11 08:24:49;;;;;;;5.77;2.20;;;18.50;99.90;;;;;;5098215;28;20487;-79
2021/07/11 08:27:15;;;;;;;11.83;7.67;;;18.40;99.90;;;;;;5097909;28;20783;-76
2021/07/11 08:29:43;;;;;;;7.83;3.40;;;18.30;99.90;;;;;;5097923;28;20435;-80
2021/07/11 08:32:10;;;;;;;1.80;1.13;;;18.30;99.90;;;;;;5098362;28;20439;-80
2021/07/11 08:34:37;;;;;;;1.27;1.20;;;18.20;99.90;;;;;;5098287;28;21010;-79
2021/07/11 08:37:04;;;;;;;2.60;0.83;;;18.20;99.90;;;;;;5098150;28;20442;-80
2021/07/11 08:39:31;;;;;;;0.60;0.40;;;18.10;99.90;;;;;;5098477;28;20587;-80
2021/07/11 08:41:59;;;;;;;18.10;11.23;;;18.10;99.90;;;;;;5097667;28;20451;-81
2021/07/11 08:44:26;;;;;;;3.40;2.00;;;18.10;99.90;;;;;;5097621;28;20467;-80
2021/07/11 08:46:54;;;;;;;8.03;4.63;;;18.00;99.90;;;;;;5088906;28;20428;-80
2021/07/11 08:49:23;;;;;;;1.13;1.13;;;17.90;99.90;;;;;;5097447;28;20428;-81
2021/07/11 08:51:56;;;;;;;2.83;2.13;;;18.00;99.90;;;;;;5097521;28;20473;-80
2021/07/11 08:54:23;;;;;;;3.30;3.13;;;18.00;99.90;;;;;;5097773;28;20456;-80
2021/07/11 08:56:50;;;;;;;15.67;7.53;;;18.00;99.90;;;;;;5097065;28;20881;-80
2021/07/11 08:59:16;;;;;;;4.23;1.90;;;18.20;99.90;;;;;;5097325;28;20487;-80
2021/07/11 09:01:43;;;;;;;5.33;3.70;;;18.30;99.90;;;;;;5096761;28;20440;-81
2021/07/11 09:04:12;;;;;;;5.67;4.70;;;18.60;99.90;;;;;;5097076;28;20452;-80
2021/07/11 09:06:41;;;;;;;5.00;4.73;;;18.90;99.90;;;;;;5097140;28;20432;-80
2021/07/11 09:09:07;;;;;;;2.23;2.03;;;19.50;99.90;;;;;;5096649;28;20440;-80
2021/07/11 09:11:45;;;;;;;2.07;1.90;;;19.90;99.90;;;;;;5097419;28;20440;-80
2021/07/11 09:14:17;;;;;;;1.87;1.77;;;19.90;99.90;;;;;;5097141;28;20470;-76
2021/07/11 09:16:44;;;;;;;3.03;2.83;;;19.90;99.90;;;;;;5087894;28;20440;-79
2021/07/11 09:19:22;;;;;;;0.50;0.30;;;19.70;99.90;;;;;;5093738;28;20562;-77
2021/07/11 09:21:57;;;;;;;8.17;7.57;;;19.50;99.90;;;;;;5094522;28;20447;-80
2021/07/11 09:24:24;;;;;;;4.97;4.57;;;19.50;99.90;;;;;;5093636;28;20463;-80
2021/07/11 09:26:51;;;;;;;0.50;0.30;;;19.20;99.90;;;;;;5094064;28;20469;-80
2021/07/11 09:29:29;;;;;;;1.07;1.07;;;19.20;99.90;;;;;;5094908;28;20447;-76
2021/07/11 09:31:56;;;;;;;1.47;1.37;;;19.40;99.90;;;;;;5095018;28;20440;-80
2021/07/11 09:34:26;;;;;;;1.53;1.53;;;19.50;99.90;;;;;;5095243;28;20464;-79
2021/07/11 09:37:13;;;;;;;0.50;0.30;;;19.70;99.90;;;;;;5094797;28;20455;-79
2021/07/11 09:39:49;;;;;;;2.43;2.23;;;19.90;99.90;;;;;;5094658;28;20472;-79
2021/07/11 09:42:30;;;;;;;0.50;0.40;;;20.10;99.90;;;;;;5095072;28;20988;-80
2021/07/11 09:44:58;;;;;;;3.57;2.27;;;20.30;99.90;;;;;;5094805;28;20468;-79
2021/07/11 09:47:27;;;;;;;0.80;0.80;;;20.30;99.90;;;;;;5086316;28;20801;-79
2021/07/11 09:50:07;;;;;;;1.20;1.10;;;20.20;99.90;;;;;;5094901;28;20840;-79
2021/07/11 09:52:35;;;;;;;0.90;0.80;;;20.10;99.90;;;;;;5094433;28;20443;-80
2021/07/11 09:55:08;;;;;;;0.80;0.80;;;19.90;99.90;;;;;;5094975;28;21007;-79
2021/07/11 09:57:36;;;;;;;0.50;0.30;;;19.80;99.90;;;;;;5094652;28;20442;-78
2021/07/11 10:00:12;;;;;;;0.50;0.30;;;19.70;99.90;;;;;;5095035;28;20483;-80
2021/07/11 10:02:39;;;;;;;5.10;2.33;;;19.70;99.90;;;;;;5095023;28;20419;-79
2021/07/11 10:05:09;;;;;;;3.43;2.40;;;19.70;99.90;;;;;;5094612;28;20456;-79
2021/07/11 10:07:37;;;;;;;7.60;5.40;;;19.60;99.90;;;;;;5094263;28;20438;-80
2021/07/11 10:10:05;;;;;;;0.50;0.40;;;19.40;99.90;;;;;;5094959;28;20436;-79
2021/07/11 10:12:32;;;;;;;1.47;1.37;;;19.40;99.90;;;;;;5094659;28;20625;-80
2021/07/11 10:14:59;;;;;;;1.97;1.83;;;19.50;99.90;;;;;;5093991;28;20513;-79
2021/07/11 10:17:27;;;;;;;1.03;1.03;;;19.70;99.90;;;;;;5085955;28;20443;-79
2021/07/11 10:19:55;;;;;;;0.50;0.40;;;19.80;99.90;;;;;;5094443;28;20915;-81
2021/07/11 10:22:23;;;;;;;0.50;0.50;;;20.00;99.90;;;;;;5094815;28;20778;-80
2021/07/11 10:24:51;;;;;;;0.83;0.83;;;20.30;99.90;;;;;;5094847;28;20840;-80
2021/07/11 10:27:20;;;;;;;0.50;0.40;;;20.90;99.90;;;;;;5094053;28;20970;-79
2021/07/11 10:29:48;;;;;;;4.43;4.10;;;21.60;99.90;;;;;;5095022;28;20439;-79
2021/07/11 10:32:32;;;;;;;3.73;1.73;;;22.40;99.90;;;;;;5094930;28;20433;-81
2021/07/11 10:35:15;;;;;;;0.50;0.50;;;22.80;99.90;;;;;;5094883;28;21195;-81
2021/07/11 10:37:47;;;;;;;0.50;0.40;;;23.30;99.90;;;;;;5093733;28;21083;-81
2021/07/11 10:40:17;;;;;;;0.50;0.50;;;24.00;99.90;;;;;;5094274;28;20482;-80
2021/07/11 10:42:43;;;;;;;0.50;0.30;;;25.00;99.90;;;;;;5094510;28;20804;-80
2021/07/11 10:45:12;;;;;;;0.50;0.30;;;25.40;99.90;;;;;;5093238;28;20480;-80
2021/07/11 10:47:40;;;;;;;1.53;1.43;;;26.70;99.90;;;;;;5087684;28;20437;-80
2021/07/11 10:50:21;;;;;;;0.50;0.30;;;27.10;99.90;;;;;;5094352;28;20436;-80
2021/07/11 10:52:49;;;;;;;4.80;4.40;;;26.90;99.90;;;;;;5095035;28;20436;-81
2021/07/11 10:55:16;;;;;;;0.67;0.60;;;27.20;99.90;;;;;;5095033;28;20463;-79
2021/07/11 10:57:43;;;;;;;0.50;0.40;;;26.50;99.90;;;;;;5093776;28;20440;-80
2021/07/11 11:00:17;;;;;;;1.23;1.13;;;26.10;99.90;;;;;;5094117;28;20879;-81
2021/07/11 11:02:45;;;;;;;0.50;0.50;;;25.40;99.90;;;;;;5094196;28;20435;-81
2021/07/11 11:05:16;;;;;;;1.07;1.00;;;24.90;99.90;;;;;;5094572;28;20473;-79
2021/07/11 11:07:45;;;;;;;4.53;4.30;;;24.70;99.90;;;;;;5094517;28;20445;-80
2021/07/11 11:10:22;;;;;;;0.60;0.60;;;23.90;99.90;;;;;;5093474;28;21004;-80
2021/07/11 11:13:04;;;;;;;0.50;0.40;;;23.60;99.90;;;;;;5093603;28;20427;-79
2021/07/11 11:15:36;;;;;;;0.50;0.40;;;23.70;99.90;;;;;;5089446;28;20456;-79
2021/07/11 11:18:26;;;;;;;0.50;0.40;;;23.70;99.90;;;;;;5089840;28;20435;-80
2021/07/11 11:20:59;;;;;;;1.33;1.17;;;23.60;99.90;;;;;;5093309;28;20467;-79
2021/07/11 11:23:31;;;;;;;5.60;2.70;;;23.60;99.90;;;;;;5092532;28;20443;-82
2021/07/11 11:25:59;;;;;;;0.50;0.30;;;23.10;99.90;;;;;;5094326;28;20424;-79
2021/07/11 11:28:34;;;;;;;9.70;5.00;;;23.00;99.90;;;;;;5092838;28;20481;-79
2021/07/11 11:31:16;;;;;;;1.60;1.50;;;22.80;99.90;;;;;;5093239;28;20440;-79
2021/07/11 11:33:51;;;;;;;0.70;0.60;;;22.50;99.90;;;;;;5093042;28;20462;-79
2021/07/11 11:36:20;;;;;;;1.40;1.40;;;22.40;99.90;;;;;;5093431;28;20444;-80
2021/07/11 11:38:47;;;;;;;1.70;1.60;;;22.50;99.90;;;;;;5093667;28;20435;-80
2021/07/11 11:41:17;;;;;;;4.30;1.67;;;22.60;99.90;;;;;;5093708;28;20474;-80
2021/07/11 11:43:44;;;;;;;4.60;4.30;;;22.60;99.90;;;;;;5092777;28;20474;-80
2021/07/11 11:46:23;;;;;;;1.73;1.63;;;22.60;99.90;;;;;;5084720;28;20438;-80
2021/07/11 11:48:54;;;;;;;1.93;1.83;;;22.60;99.90;;;;;;5093193;28;20427;-80
2021/07/11 11:51:21;;;;;;;1.37;1.27;;;22.70;99.90;;;;;;5093799;28;20467;-80
2021/07/11 11:53:48;;;;;;;0.50;0.40;;;22.80;99.90;;;;;;5093379;28;20469;-80
2021/07/11 11:56:16;;;;;;;0.50;0.30;;;23.00;99.90;;;;;;5093736;28;20454;-77
2021/07/11 11:58:43;;;;;;;0.50;0.43;;;23.00;99.90;;;;;;5093580;28;20928;-78
2021/07/11 12:01:12;;;;;;;1.10;1.10;;;23.30;99.90;;;;;;5093689;28;21056;-80
2021/07/11 12:03:40;;;;;;;6.90;0.77;;;23.50;99.90;;;;;;5094000;28;20490;-80
2021/07/11 12:06:09;;;;;;;7.47;4.00;;;23.90;99.90;;;;;;5092968;28;20446;-81
2021/07/11 12:08:37;;;;;;;1.03;1.03;;;24.10;99.90;;;;;;5093031;28;20443;-81
2021/07/11 12:11:06;;;;;;;0.60;0.60;;;24.30;99.90;;;;;;5093624;28;20442;-80
2021/07/11 12:13:35;;;;;;;4.50;1.80;;;24.40;99.90;;;;;;5093612;28;20456;-80
2021/07/11 12:16:07;;;;;;;0.87;0.87;;;24.20;99.90;;;;;;5084535;28;20440;-81
2021/07/11 12:18:44;;;;;;;0.60;0.60;;;24.10;99.90;;;;;;5072905;28;20440;-80
2021/07/11 12:21:11;;;;;;;1.43;0.93;;;24.70;99.90;;;;;;5073019;28;20487;-80
2021/07/11 12:23:38;;;;;;;4.57;3.17;;;25.20;99.90;;;;;;5073026;28;20962;-80
2021/07/11 12:26:07;;;;;;;0.50;0.30;;;25.40;99.90;;;;;;5073142;28;20441;-80
2021/07/11 12:28:39;;;;;;;0.90;0.90;;;25.80;99.90;;;;;;5072995;28;20814;-80
2021/07/11 12:31:06;;;;;;;2.93;2.70;;;26.30;99.90;;;;;;5073250;28;20921;-79
2021/07/11 12:33:37;;;;;;;0.50;0.30;;;26.50;99.90;;;;;;5072891;28;20843;-81
2021/07/11 12:36:05;;;;;;;0.50;0.30;;;26.70;99.90;;;;;;5073404;28;20430;-80
2021/07/11 12:38:34;;;;;;;3.13;2.53;;;26.90;99.90;;;;;;5073120;28;20496;-80
2021/07/11 12:41:04;;;;;;;0.60;0.47;;;26.90;99.90;;;;;;5073336;28;20499;-81
2021/07/11 12:43:32;;;;;;;1.60;1.50;;;27.00;99.90;;;;;;5075758;28;20569;-80
2021/07/11 12:46:02;;;;;;;0.50;0.30;;;27.20;99.90;;;;;;5085616;28;20482;-80
2021/07/11 12:48:37;;;;;;;0.50;0.40;;;27.40;99.90;;;;;;5073287;28;20496;-79
2021/07/11 12:51:20;;;;;;;1.13;1.03;;;27.60;99.90;;;;;;5073219;28;20429;-79
2021/07/11 12:53:49;;;;;;;0.50;0.47;;;27.60;99.90;;;;;;5072865;28;20965;-80